KSYN/SYN METAR and TAF weather

Enter ICAO airport designator
Station Type Date Time Source
KSYN METAR 2020/04/05 13:16 UTC NOAA

KSYN 051316Z AUTO 00000KT 10SM CLR 00/M02 A3018 RMK AO2 T10021021


Station Type Date Time Source
KSYN Decoded METAR 2020/04/05 13:16 UTC NOAA

Stanton, Stanton Airfield, MN, United States (KSYN) 44-28-31N 093-00-58W
Apr 05, 2020 - 09:16 AM EDT / 2020.04.05 1316 UTC
Wind: Calm:0
Visibility: 10 mile(s):0
Sky conditions: clear
Temperature: 31.6 F (-0.2 C)
Dew Point: 28.2 F (-2.1 C)
Relative Humidity: 86%
Pressure (altimeter): 30.18 in. Hg (1022 hPa)
ob: KSYN 051316Z AUTO 00000KT 10SM CLR 00/M02 A3018 RMK AO2 T10021021
cycle: 13

Station Type Date Time Source
KSYN TAF UTC NOAA

Error!

Example: see airport list